Time;durP1;ratioP1;P1;durP2;ratioP2;P2;SDS_P1;SDS_P2;PMS_P1;PMS_P2;Temp;Humidity;BMP_temperature;BMP_pressure;BME280_temperature;BME280_humidity;BME280_pressure;Samples;Min_cycle;Max_cycle;Signal;HPM_P1;HPM_P2
2023/03/05 00:02:20;;;;;;;5.72;3.08;;;;;;;15.91;47.37;102404.41;5024599;28;20053;-34
2023/03/05 00:04:47;;;;;;;5.65;3.47;;;;;;;15.91;47.94;102393.72;5020937;28;20062;-34
2023/03/05 00:07:13;;;;;;;6.05;2.90;;;;;;;15.90;47.83;102394.69;5023765;28;20072;-34
2023/03/05 00:09:40;;;;;;;5.60;2.90;;;;;;;15.91;48.34;102399.06;5020266;28;20140;-34
2023/03/05 00:12:07;;;;;;;5.80;2.67;;;;;;;15.89;48.38;102384.94;5018513;28;20046;-34
2023/03/05 00:14:33;;;;;;;4.38;2.63;;;;;;;15.89;48.05;102387.63;5020417;28;20132;-34
2023/03/05 00:17:00;;;;;;;6.05;3.05;;;;;;;15.88;47.33;102384.09;5021983;28;20054;-34
2023/03/05 00:19:26;;;;;;;5.10;2.67;;;;;;;15.88;47.37;102378.75;5023866;28;20076;-34
2023/03/05 00:21:53;;;;;;;4.53;2.53;;;;;;;15.87;48.31;102379.69;5023377;28;20041;-34
2023/03/05 00:24:19;;;;;;;6.63;2.78;;;;;;;15.87;47.66;102373.47;5024918;28;20050;-34
2023/03/05 00:26:46;;;;;;;5.72;3.00;;;;;;;15.87;48.20;102384.19;5022799;28;20365;-36
2023/03/05 00:29:20;;;;;;;3.92;2.33;;;;;;;15.86;48.42;102375.31;5019894;28;20084;-34
2023/03/05 00:31:47;;;;;;;4.40;2.72;;;;;;;15.87;47.38;102373.47;5023571;28;20480;-34
2023/03/05 00:34:17;;;;;;;4.50;2.33;;;;;;;15.87;47.84;102373.47;5019618;28;20189;-34
2023/03/05 00:36:46;;;;;;;4.80;2.47;;;;;;;15.85;47.56;102367.41;5015575;28;20058;-35
2023/03/05 00:39:13;;;;;;;4.75;2.95;;;;;;;15.85;48.28;102370.06;5022343;28;20433;-33
2023/03/05 00:41:40;;;;;;;4.45;2.70;;;;;;;15.84;47.91;102362.97;5022149;28;20052;-34
2023/03/05 00:44:07;;;;;;;5.47;2.38;;;;;;;15.84;48.34;102362.97;5020864;28;20053;-34
2023/03/05 00:46:34;;;;;;;5.88;2.65;;;;;;;15.83;47.88;102355.94;5022336;28;20053;-34
2023/03/05 00:49:00;;;;;;;5.70;2.65;;;;;;;15.83;47.98;102363.94;5025346;28;20038;-34
2023/03/05 00:51:27;;;;;;;6.10;2.50;;;;;;;15.82;47.57;102351.56;5022504;28;20050;-34
2023/03/05 00:53:54;;;;;;;5.10;2.47;;;;;;;15.82;48.29;102351.56;5018638;28;20049;-35
2023/03/05 00:56:21;;;;;;;6.07;2.75;;;;;;;15.81;47.74;102353.38;5024426;28;20046;-34
2023/03/05 00:58:47;;;;;;;4.25;2.53;;;;;;;15.79;47.55;102345.44;5021801;28;20052;-34
2023/03/05 01:01:14;;;;;;;3.63;2.20;;;;;;;15.81;48.01;102349.84;5021863;28;20498;-35
2023/03/05 01:03:41;;;;;;;4.70;2.72;;;;;;;15.79;48.07;102350.78;5022289;28;20459;-34
2023/03/05 01:06:10;;;;;;;4.20;2.25;;;;;;;15.78;47.41;102343.72;5021722;28;20056;-34
2023/03/05 01:08:37;;;;;;;4.07;2.40;;;;;;;15.79;47.76;102341.91;5015689;28;20059;-34
2023/03/05 01:11:05;;;;;;;5.13;2.47;;;;;;;15.78;48.27;102337.53;5018280;28;20044;-35
2023/03/05 01:13:32;;;;;;;3.40;2.03;;;;;;;15.77;47.36;102335.81;5018281;28;20081;-34
2023/03/05 01:15:59;;;;;;;3.97;2.03;;;;;;;15.77;47.50;102325.97;5021145;28;20084;-34
2023/03/05 01:18:25;;;;;;;6.10;2.58;;;;;;;15.76;48.04;102326.94;5020946;28;20087;-35
2023/03/05 01:20:52;;;;;;;5.35;2.38;;;;;;;15.76;48.14;102318.06;5020081;28;20044;-34
2023/03/05 01:23:18;;;;;;;5.32;2.40;;;;;;;15.76;48.61;102321.59;5021094;28;20060;-34
2023/03/05 01:25:45;;;;;;;3.05;2.05;;;;;;;15.76;48.34;102312.72;5019207;28;20057;-34
2023/03/05 01:28:11;;;;;;;3.25;2.15;;;;;;;15.76;47.45;102316.25;5018113;28;20053;-34
2023/03/05 01:30:38;;;;;;;3.70;2.17;;;;;;;15.75;48.37;102311.00;5020152;28;20045;-34
2023/03/05 01:33:05;;;;;;;3.85;2.00;;;;;;;15.74;48.64;102310.13;5025828;28;20050;-34
2023/03/05 01:35:31;;;;;;;3.40;2.00;;;;;;;15.74;47.43;102309.28;5022217;28;20129;-34
2023/03/05 01:37:58;;;;;;;5.13;2.40;;;;;;;15.73;48.40;102308.44;5026112;28;20077;-34
2023/03/05 01:40:27;;;;;;;5.28;2.30;;;;;;;15.73;48.42;102308.44;5021480;28;20046;-34
2023/03/05 01:43:19;;;;;;;3.95;1.80;;;;;;;15.72;47.48;102306.72;5022398;28;20405;-35
2023/03/05 01:46:23;;;;;;;5.18;2.40;;;;;;;15.70;47.76;102292.59;5018465;28;20429;-34
2023/03/05 01:48:58;;;;;;;4.05;1.90;;;;;;;15.70;48.56;102292.59;5021350;28;20042;-34
2023/03/05 01:51:28;;;;;;;3.85;2.00;;;;;;;15.70;48.19;102287.25;5027381;28;20038;-34
2023/03/05 01:53:57;;;;;;;3.92;2.00;;;;;;;15.69;47.49;102285.53;5026384;28;20049;-34
2023/03/05 01:56:25;;;;;;;3.60;1.90;;;;;;;15.69;48.48;102282.88;5026316;28;20133;-34
2023/03/05 01:58:53;;;;;;;4.05;2.22;;;;;;;15.69;48.06;102274.00;5022559;28;20053;-34
2023/03/05 02:01:19;;;;;;;3.78;2.03;;;;;;;15.68;48.59;102278.50;5026293;28;20052;-34
2023/03/05 02:03:47;;;;;;;3.72;2.00;;;;;;;15.68;47.97;102280.31;5028192;28;20119;-34
2023/03/05 02:06:13;;;;;;;3.75;1.85;;;;;;;15.68;48.48;102274.97;5030495;28;20088;-35
2023/03/05 02:08:40;;;;;;;3.30;1.73;;;;;;;15.68;47.78;102283.00;5028298;28;20128;-35
2023/03/05 02:11:07;;;;;;;3.45;1.90;;;;;;;15.67;47.82;102271.41;5029998;28;20045;-34
2023/03/05 02:13:37;;;;;;;3.63;1.67;;;;;;;15.66;48.55;102261.69;5024765;28;20100;-35
2023/03/05 02:16:04;;;;;;;4.05;1.98;;;;;;;15.66;47.70;102251.00;5022568;28;20057;-34
2023/03/05 02:18:30;;;;;;;3.83;1.60;;;;;;;15.67;48.01;102250.03;5024343;28;20752;-35
2023/03/05 02:20:57;;;;;;;3.22;2.05;;;;;;;15.66;48.92;102252.81;5025925;28;20047;-34
2023/03/05 02:23:26;;;;;;;2.42;1.40;;;;;;;15.66;48.07;102247.47;5023292;28;20046;-35
2023/03/05 02:25:52;;;;;;;4.13;1.85;;;;;;;15.66;48.82;102242.97;5021583;28;20054;-35
2023/03/05 02:28:27;;;;;;;2.33;1.73;;;;;;;15.67;47.81;102249.19;5022073;28;20058;-34
2023/03/05 02:30:54;;;;;;;2.63;1.60;;;;;;;15.66;47.88;102242.13;5023500;28;20050;-35
2023/03/05 02:33:21;;;;;;;5.13;1.80;;;;;;;15.66;48.64;102231.44;5025479;28;20049;-34
2023/03/05 02:35:48;;;;;;;3.60;1.50;;;;;;;15.64;48.91;102226.16;5022636;28;20372;-34
2023/03/05 02:38:17;;;;;;;4.50;1.90;;;;;;;15.64;47.94;102234.19;5027743;28;20489;-35
2023/03/05 02:40:44;;;;;;;2.75;1.50;;;;;;;15.64;48.82;102219.94;5026382;28;20466;-34
2023/03/05 02:43:11;;;;;;;3.30;1.92;;;;;;;15.64;48.58;102212.81;5025837;28;20053;-35
2023/03/05 02:45:38;;;;;;;3.42;1.77;;;;;;;15.63;48.80;102216.41;5023958;28;20107;-34
2023/03/05 02:48:05;;;;;;;4.43;1.98;;;;;;;15.63;48.82;102211.06;5025809;28;20445;-35
2023/03/05 02:50:32;;;;;;;4.07;1.73;;;;;;;15.63;48.02;102199.53;5021343;28;20429;-35
2023/03/05 02:52:59;;;;;;;2.80;1.48;;;;;;;15.63;48.04;102203.06;5022521;28;20069;-34
2023/03/05 02:55:25;;;;;;;4.07;1.73;;;;;;;15.62;48.33;102196.00;5025335;28;20089;-35
2023/03/05 02:57:52;;;;;;;2.80;1.73;;;;;;;15.63;47.69;102194.19;5023927;28;20339;-34
2023/03/05 03:00:19;;;;;;;3.33;1.48;;;;;;;15.62;48.80;102192.47;5021636;28;20060;-34
2023/03/05 03:02:45;;;;;;;3.28;1.55;;;;;;;15.61;48.81;102186.28;5024511;28;20148;-34
2023/03/05 03:05:12;;;;;;;2.95;1.42;;;;;;;15.61;48.23;102178.28;5025269;28;20057;-34
2023/03/05 03:07:39;;;;;;;3.10;1.55;;;;;;;15.61;48.22;102172.06;5026610;28;20348;-35
2023/03/05 03:10:06;;;;;;;2.38;1.33;;;;;;;15.60;48.16;102171.22;5021811;28;20053;-34
2023/03/05 03:12:40;;;;;;;3.10;1.67;;;;;;;15.60;48.11;102173.88;5024079;28;20077;-36
2023/03/05 03:15:08;;;;;;;2.92;1.55;;;;;;;15.60;47.83;102160.53;5022573;28;20429;-34
2023/03/05 03:17:36;;;;;;;2.25;1.25;;;;;;;15.58;48.20;102157.09;5022551;28;20049;-34
2023/03/05 03:20:05;;;;;;;3.45;1.58;;;;;;;15.58;48.99;102157.09;5026198;28;20128;-34
2023/03/05 03:22:31;;;;;;;4.10;1.67;;;;;;;15.58;48.06;102150.91;5021738;28;20049;-34
2023/03/05 03:24:59;;;;;;;2.08;1.50;;;;;;;15.57;48.47;102158.06;5023261;28;20049;-34
2023/03/05 03:27:26;;;;;;;2.45;1.30;;;;;;;15.57;47.92;102158.06;5021493;28;20060;-35
2023/03/05 03:29:52;;;;;;;3.58;1.38;;;;;;;15.56;47.81;102153.69;5023736;28;20049;-35
2023/03/05 03:32:19;;;;;;;2.55;1.42;;;;;;;15.54;47.88;102148.44;5029621;28;20158;-34
2023/03/05 03:34:46;;;;;;;2.78;1.40;;;;;;;15.55;48.54;102151.94;5026019;28;20137;-34
2023/03/05 03:37:13;;;;;;;2.50;1.30;;;;;;;15.53;48.95;102146.72;5025084;28;20064;-34
2023/03/05 03:39:40;;;;;;;2.60;1.30;;;;;;;15.52;48.02;102139.69;5024649;28;20434;-34
2023/03/05 03:42:06;;;;;;;2.28;1.00;;;;;;;15.53;48.21;102135.19;5021625;28;20497;-35
2023/03/05 03:44:33;;;;;;;2.83;1.40;;;;;;;15.52;47.94;102134.31;5020047;28;20045;-35
2023/03/05 03:46:59;;;;;;;1.98;1.40;;;;;;;15.53;48.07;102135.19;5023363;28;20046;-34
2023/03/05 03:49:26;;;;;;;1.95;1.10;;;;;;;15.53;48.68;102129.84;5023984;28;20132;-34
2023/03/05 03:51:53;;;;;;;2.35;1.30;;;;;;;15.53;48.19;102138.72;5025092;28;20048;-35
2023/03/05 03:54:21;;;;;;;4.30;1.45;;;;;;;15.52;48.69;102139.69;5022293;28;20449;-35
2023/03/05 03:56:47;;;;;;;2.25;1.30;;;;;;;15.53;48.34;102140.53;5021949;28;20449;-35
2023/03/05 03:59:14;;;;;;;2.22;1.77;;;;;;;15.53;47.93;102132.50;5020360;28;20084;-35
2023/03/05 04:01:41;;;;;;;2.35;0.90;;;;;;;15.53;48.39;102129.84;5020548;28;20347;-35
2023/03/05 04:04:09;;;;;;;3.65;1.75;;;;;;;15.52;47.77;102125.47;5026929;28;20063;-34
2023/03/05 04:06:36;;;;;;;1.80;1.30;;;;;;;15.52;47.90;102125.47;5024128;28;20050;-35
2023/03/05 04:09:03;;;;;;;2.00;1.20;;;;;;;15.52;48.85;102112.09;5023079;28;20631;-35
2023/03/05 04:11:30;;;;;;;2.33;1.25;;;;;;;15.51;48.18;102111.22;5021145;28;20072;-34
2023/03/05 04:13:57;;;;;;;2.55;1.08;;;;;;;15.50;48.78;102106.84;5019697;28;20056;-35
2023/03/05 04:16:23;;;;;;;2.42;1.10;;;;;;;15.50;48.21;102112.19;5022834;28;20341;-35
2023/03/05 04:18:50;;;;;;;4.07;1.42;;;;;;;15.49;48.40;102113.16;5029024;28;20045;-35
2023/03/05 04:21:16;;;;;;;2.13;1.20;;;;;;;15.50;48.36;102114.00;5019587;28;20426;-35
2023/03/05 04:23:43;;;;;;;3.65;1.20;;;;;;;15.49;48.76;102107.81;5023316;28;20441;-34
2023/03/05 04:26:10;;;;;;;2.53;1.35;;;;;;;15.48;49.12;102107.94;5022408;28;20046;-34
2023/03/05 04:28:36;;;;;;;1.88;1.10;;;;;;;15.48;49.14;102110.59;5021076;28;20051;-34
2023/03/05 04:31:03;;;;;;;2.20;1.10;;;;;;;15.48;48.23;102102.59;5021925;28;20445;-33
2023/03/05 04:33:30;;;;;;;1.60;1.20;;;;;;;15.48;49.29;102097.25;5020716;28;20100;-34
2023/03/05 04:35:57;;;;;;;2.35;1.33;;;;;;;15.46;48.51;102097.34;5021745;28;20077;-33
2023/03/05 04:38:23;;;;;;;2.95;1.50;;;;;;;15.46;48.29;102091.13;5024249;28;20092;-33
2023/03/05 04:40:50;;;;;;;2.47;1.02;;;;;;;15.47;49.21;102092.84;5022782;28;20080;-33
2023/03/05 04:43:17;;;;;;;2.15;0.98;;;;;;;15.45;49.12;102076.94;5022634;28;20440;-34
2023/03/05 04:45:43;;;;;;;2.92;1.90;;;;;;;15.45;49.49;102094.78;5023574;28;20044;-35
2023/03/05 04:48:11;;;;;;;3.42;1.45;;;;;;;15.45;49.17;102078.75;5024504;28;20049;-34
2023/03/05 04:50:37;;;;;;;1.35;1.02;;;;;;;15.45;49.12;102081.41;5023389;28;20055;-34
2023/03/05 04:53:04;;;;;;;1.52;1.00;;;;;;;15.44;48.53;102085.91;5024741;28;20042;-35
2023/03/05 04:55:31;;;;;;;1.55;1.05;;;;;;;15.44;48.20;102074.38;5023409;28;20331;-34
2023/03/05 04:57:58;;;;;;;2.13;1.05;;;;;;;15.43;48.31;102077.97;5024728;28;20099;-34
2023/03/05 05:00:24;;;;;;;2.03;0.93;;;;;;;15.43;48.22;102069.97;5021271;28;20509;-35
2023/03/05 05:02:51;;;;;;;1.70;1.08;;;;;;;15.43;48.85;102069.97;5022020;28;20049;-34
2023/03/05 05:05:21;;;;;;;1.95;1.00;;;;;;;15.43;48.50;102069.97;5019667;28;20076;-34
2023/03/05 05:07:47;;;;;;;2.47;1.10;;;;;;;15.42;48.76;102062.94;5021730;28;20057;-35
2023/03/05 05:10:15;;;;;;;2.13;0.98;;;;;;;15.40;48.48;102060.38;5021028;28;20054;-35
2023/03/05 05:12:41;;;;;;;4.07;1.55;;;;;;;15.40;48.47;102055.03;5020943;28;20079;-36
2023/03/05 05:15:11;;;;;;;2.78;1.00;;;;;;;15.40;48.77;102051.50;5026400;28;20041;-35
2023/03/05 05:17:37;;;;;;;2.75;0.90;;;;;;;15.39;48.45;102047.94;5026832;28;20048;-36
2023/03/05 05:20:05;;;;;;;2.97;1.10;;;;;;;15.40;49.30;102054.19;5022266;28;20053;-35
2023/03/05 05:22:32;;;;;;;2.95;1.10;;;;;;;15.40;49.30;102046.16;5018445;28;20056;-36
2023/03/05 05:24:59;;;;;;;2.75;0.93;;;;;;;15.39;49.26;102037.25;5017635;28;20061;-35
2023/03/05 05:27:25;;;;;;;1.73;0.80;;;;;;;15.40;49.21;102046.16;5033931;28;20053;-35
2023/03/05 05:29:52;;;;;;;3.15;0.80;;;;;;;15.40;48.90;102040.81;5020135;28;20056;-35
2023/03/05 05:32:23;;;;;;;1.65;0.85;;;;;;;15.38;48.34;102035.56;5021559;28;20054;-35
2023/03/05 05:34:54;;;;;;;1.38;0.80;;;;;;;15.39;48.61;102039.09;5022578;28;20060;-36
2023/03/05 05:37:21;;;;;;;1.88;0.90;;;;;;;15.38;49.53;102035.56;5020719;28;20345;-35
2023/03/05 05:39:49;;;;;;;2.00;0.88;;;;;;;15.39;49.35;102033.75;5020126;28;20049;-36
2023/03/05 05:42:17;;;;;;;2.30;1.15;;;;;;;15.39;48.98;102037.25;5018478;28;20049;-36
2023/03/05 05:44:43;;;;;;;2.45;0.90;;;;;;;15.38;49.35;102035.56;5018333;28;20072;-35
2023/03/05 05:47:10;;;;;;;2.17;1.35;;;;;;;15.38;48.58;102034.72;5019462;28;20430;-35
2023/03/05 05:49:37;;;;;;;1.73;0.73;;;;;;;15.39;48.60;102036.41;5022283;28;20049;-34
2023/03/05 05:52:03;;;;;;;1.50;0.88;;;;;;;15.38;49.27;102022.22;5023263;28;20052;-35
2023/03/05 05:54:30;;;;;;;1.52;0.70;;;;;;;15.38;49.70;102018.69;5024704;28;20053;-35
2023/03/05 05:56:57;;;;;;;2.22;0.75;;;;;;;15.38;49.40;102019.53;5021700;28;20046;-33
2023/03/05 05:59:23;;;;;;;1.30;0.90;;;;;;;15.38;49.65;102013.34;5024305;28;20433;-34
2023/03/05 06:01:50;;;;;;;1.70;0.77;;;;;;;15.37;49.29;102006.28;5022999;28;20497;-34
2023/03/05 06:04:17;;;;;;;1.23;0.80;;;;;;;15.36;48.69;102013.47;5022723;28;20050;-34
2023/03/05 06:06:43;;;;;;;1.15;0.90;;;;;;;15.36;49.29;102015.28;5024352;28;20165;-34
2023/03/05 06:09:10;;;;;;;1.35;0.82;;;;;;;15.36;49.09;102009.94;5023372;28;20084;-34
2023/03/05 06:11:37;;;;;;;2.38;0.90;;;;;;;15.36;49.31;102015.28;5022695;28;20136;-34
2023/03/05 06:14:03;;;;;;;1.88;0.88;;;;;;;15.35;48.59;102016.22;5022270;28;20068;-34
2023/03/05 06:16:30;;;;;;;2.03;0.98;;;;;;;15.35;49.26;102008.19;5021463;28;20456;-33
2023/03/05 06:18:57;;;;;;;3.05;0.98;;;;;;;15.35;49.13;102016.22;5024927;28;20076;-34
2023/03/05 06:21:24;;;;;;;3.75;0.95;;;;;;;15.32;48.95;102009.28;5024204;28;20059;-34
2023/03/05 06:23:50;;;;;;;1.80;0.70;;;;;;;15.33;48.62;102008.31;5024833;28;20045;-33
2023/03/05 06:26:19;;;;;;;1.65;0.73;;;;;;;15.30;49.62;102009.38;5025312;28;20051;-33
2023/03/05 06:28:46;;;;;;;1.85;0.80;;;;;;;15.32;48.65;102022.66;5027532;28;20072;-34
2023/03/05 06:31:16;;;;;;;0.80;0.63;;;;;;;15.30;49.20;102017.41;5026341;28;20085;-33
2023/03/05 06:33:43;;;;;;;1.83;0.80;;;;;;;15.31;49.40;102020.91;5020518;28;20081;-33
2023/03/05 06:36:14;;;;;;;1.05;0.60;;;;;;;15.30;49.43;102017.41;5020748;28;20529;-33
2023/03/05 06:38:41;;;;;;;1.45;0.93;;;;;;;15.31;49.29;102023.59;5022202;28;20041;-34
2023/03/05 06:41:11;;;;;;;1.27;0.70;;;;;;;15.30;48.48;102019.22;5018387;28;20046;-34
2023/03/05 06:43:40;;;;;;;1.08;0.70;;;;;;;15.29;49.40;102023.72;5024354;28;20045;-33
2023/03/05 06:46:14;;;;;;;1.95;0.77;;;;;;;15.29;48.32;102020.19;5021459;28;20049;-33
2023/03/05 06:48:42;;;;;;;1.98;0.70;;;;;;;15.29;48.63;102018.38;5021755;28;20049;-35
2023/03/05 06:51:21;;;;;;;1.33;0.70;;;;;;;15.28;49.12;102019.34;5025625;28;20056;-36
2023/03/05 06:53:48;;;;;;;1.63;0.90;;;;;;;15.29;49.07;102018.38;5025313;28;20133;-35
2023/03/05 06:56:15;;;;;;;1.00;0.70;;;;;;;15.29;49.34;102018.38;5026126;28;20049;-35
2023/03/05 06:58:44;;;;;;;3.20;0.70;;;;;;;15.29;49.11;102013.03;5023921;28;20058;-35
2023/03/05 07:01:12;;;;;;;1.30;0.75;;;;;;;15.30;48.56;102014.72;5027845;28;20442;-35
2023/03/05 07:03:39;;;;;;;0.88;0.60;;;;;;;15.30;49.25;102011.19;5023244;28;20053;-34
2023/03/05 07:06:08;;;;;;;1.42;0.90;;;;;;;15.30;49.06;102000.53;5021934;28;20041;-35
2023/03/05 07:08:35;;;;;;;1.15;0.77;;;;;;;15.31;49.32;102004.88;5024273;28;20060;-35
2023/03/05 07:11:02;;;;;;;1.10;0.63;;;;;;;15.32;48.37;102003.94;5021350;28;20422;-35
2023/03/05 07:13:29;;;;;;;1.17;0.73;;;;;;;15.31;49.26;102005.75;5022766;28;20045;-35
2023/03/05 07:15:56;;;;;;;0.70;0.70;;;;;;;15.33;48.55;102007.47;5020653;28;20053;-34
2023/03/05 07:18:22;;;;;;;0.90;0.65;;;;;;;15.35;49.30;102013.53;5022975;28;20061;-33
2023/03/05 07:20:49;;;;;;;1.48;0.65;;;;;;;15.35;49.03;102027.75;5022557;28;20349;-35
2023/03/05 07:23:15;;;;;;;0.70;0.60;;;;;;;15.35;48.62;102030.44;5018472;28;20049;-35
2023/03/05 07:25:42;;;;;;;1.05;0.70;;;;;;;15.37;48.94;102020.50;5023724;28;20046;-35
2023/03/05 07:28:09;;;;;;;1.00;0.63;;;;;;;15.38;49.30;102021.34;5023565;28;20057;-35
2023/03/05 07:30:36;;;;;;;2.03;0.88;;;;;;;15.38;49.25;102010.66;5025709;28;20060;-34
2023/03/05 07:33:02;;;;;;;1.08;0.70;;;;;;;15.38;49.31;102006.19;5022120;28;20037;-35
2023/03/05 07:35:29;;;;;;;1.05;0.70;;;;;;;15.38;48.30;102005.31;5025394;28;20053;-35
2023/03/05 07:37:55;;;;;;;1.25;0.73;;;;;;;15.38;48.19;102003.50;5024195;28;20096;-35
2023/03/05 07:40:22;;;;;;;0.88;0.70;;;;;;;15.38;48.97;101997.31;5024055;28;20053;-35
2023/03/05 07:42:49;;;;;;;1.05;0.70;;;;;;;15.40;49.22;102003.41;5023951;28;20334;-35
2023/03/05 07:45:15;;;;;;;1.50;0.80;;;;;;;15.39;49.25;101994.53;5021786;28;20654;-35
2023/03/05 07:47:42;;;;;;;1.80;1.08;;;;;;;15.40;48.44;102006.09;5025908;28;20054;-35
2023/03/05 07:50:09;;;;;;;1.58;0.80;;;;;;;15.40;49.12;102004.28;5023481;28;20042;-35
2023/03/05 07:52:35;;;;;;;1.25;0.70;;;;;;;15.41;48.89;101999.78;5023683;28;20053;-36
2023/03/05 07:55:02;;;;;;;1.00;0.70;;;;;;;15.41;49.04;101997.09;5022748;28;20152;-34
2023/03/05 07:57:29;;;;;;;6.07;1.38;;;;;;;15.42;48.93;101996.97;5019429;28;20528;-34
2023/03/05 07:59:55;;;;;;;1.92;0.90;;;;;;;15.42;49.09;101999.66;5022886;28;20137;-35
2023/03/05 08:02:22;;;;;;;2.63;1.20;;;;;;;15.43;49.09;101996.00;5022472;28;20385;-34
2023/03/05 08:04:49;;;;;;;1.20;0.90;;;;;;;15.44;48.38;101991.56;5023512;28;20721;-34
2023/03/05 08:07:16;;;;;;;2.17;1.25;;;;;;;15.45;48.65;101995.94;5021931;28;20176;-34
2023/03/05 08:09:42;;;;;;;2.33;1.30;;;;;;;15.45;48.35;101995.94;5017993;28;20081;-34
2023/03/05 08:12:09;;;;;;;2.90;1.05;;;;;;;15.46;48.95;101992.28;5022445;28;20056;-34
2023/03/05 08:14:36;;;;;;;2.28;1.30;;;;;;;15.46;48.21;101993.13;5025463;28;20061;-34
2023/03/05 08:17:04;;;;;;;3.80;1.80;;;;;;;15.46;48.91;101987.78;5023541;28;20053;-34
2023/03/05 08:19:32;;;;;;;2.30;1.40;;;;;;;15.48;48.37;101985.88;5020719;28;20058;-34
2023/03/05 08:21:58;;;;;;;3.47;1.85;;;;;;;15.47;48.76;101986.81;5025545;28;20045;-34
2023/03/05 08:24:28;;;;;;;2.85;1.40;;;;;;;15.48;48.52;101982.34;5023592;28;20421;-34
2023/03/05 08:26:56;;;;;;;4.03;2.28;;;;;;;15.49;48.81;101984.06;5022347;28;20626;-34
2023/03/05 08:29:24;;;;;;;2.78;1.52;;;;;;;15.50;48.50;101983.09;5023268;28;20164;-35
2023/03/05 08:31:52;;;;;;;3.35;1.95;;;;;;;15.51;48.61;101982.97;5023845;28;20053;-35
2023/03/05 08:34:20;;;;;;;5.00;2.25;;;;;;;15.51;48.55;101976.78;5022542;28;20060;-34
2023/03/05 08:36:47;;;;;;;4.10;1.80;;;;;;;15.53;48.44;101973.03;5021867;28;20053;-34
2023/03/05 08:39:14;;;;;;;4.65;2.60;;;;;;;15.54;48.74;101969.41;5021575;28;20078;-35
2023/03/05 08:41:41;;;;;;;4.60;2.25;;;;;;;15.56;49.35;101966.63;5023413;28;20054;-35
2023/03/05 08:44:08;;;;;;;4.72;2.63;;;;;;;15.59;48.54;101963.72;5023458;28;20053;-35
2023/03/05 08:46:34;;;;;;;4.72;2.50;;;;;;;15.60;48.53;101965.44;5022146;28;20084;-35
2023/03/05 08:49:01;;;;;;;4.43;2.40;;;;;;;15.62;49.31;101955.47;5019535;28;20141;-34
2023/03/05 08:51:28;;;;;;;5.00;2.80;;;;;;;15.64;48.20;101956.25;5020581;28;20468;-35
2023/03/05 08:53:57;;;;;;;6.60;3.38;;;;;;;15.63;48.84;101949.16;5026029;28;20049;-35
2023/03/05 08:56:26;;;;;;;7.38;3.45;;;;;;;15.66;48.62;101957.00;5016424;28;20053;-35
2023/03/05 08:58:53;;;;;;;6.63;3.30;;;;;;;15.66;48.65;101948.13;5020447;28;20041;-36
2023/03/05 09:01:19;;;;;;;5.95;3.53;;;;;;;15.66;48.95;101948.97;5019120;28;20448;-35
2023/03/05 09:03:46;;;;;;;7.07;3.97;;;;;;;15.66;48.84;101943.63;5018358;28;20093;-34
2023/03/05 09:06:12;;;;;;;7.80;4.38;;;;;;;15.67;47.93;101948.00;5018398;28;20057;-34
2023/03/05 09:08:40;;;;;;;7.80;4.00;;;;;;;15.68;48.44;101948.91;5022667;28;20133;-35
2023/03/05 09:11:08;;;;;;;9.88;4.40;;;;;;;15.68;48.65;101947.06;5020263;28;20049;-35
2023/03/05 09:13:35;;;;;;;13.18;7.05;;;;;;;15.71;48.26;101938.81;5012949;28;20059;-34
2023/03/05 09:16:05;;;;;;;18.80;9.18;;;;;;;15.74;48.66;101943.09;5015504;28;20357;-34
2023/03/05 09:18:35;;;;;;;26.27;14.07;;;;;;;15.76;48.59;101942.03;5013505;28;20140;-35
2023/03/05 09:21:11;;;;;;;29.80;15.68;;;;;;;15.81;48.92;101940.84;5015145;28;20049;-34
2023/03/05 09:23:38;;;;;;;32.78;18.13;;;;;;;15.84;48.91;101936.13;5016245;28;20274;-34
2023/03/05 09:26:10;;;;;;;36.88;19.60;;;;;;;15.89;49.85;101938.44;5012132;28;20045;-34
2023/03/05 09:28:38;;;;;;;43.05;20.27;;;;;;;15.94;49.77;101936.28;5011710;28;20491;-34
2023/03/05 09:31:06;;;;;;;41.45;21.35;;;;;;;16.00;50.03;101935.81;5010332;28;20155;-33
2023/03/05 09:33:35;;;;;;;38.97;20.65;;;;;;;16.06;49.97;101940.72;5011700;28;20456;-34
2023/03/05 09:36:03;;;;;;;122.47;45.88;;;;;;;16.13;49.72;101941.13;5009676;28;20049;-33
2023/03/05 09:38:30;;;;;;;87.25;37.13;;;;;;;16.19;49.61;101938.81;5023270;28;20057;-33
2023/03/05 09:41:02;;;;;;;84.47;35.78;;;;;;;16.25;49.55;101937.53;5008456;28;20092;-35
2023/03/05 09:43:57;;;;;;;73.47;30.08;;;;;;;16.30;50.17;101932.69;5005937;28;21469;-33
2023/03/05 09:46:37;;;;;;;70.90;28.65;;;;;;;16.35;49.14;101932.31;5008404;28;20127;-33
2023/03/05 09:49:15;;;;;;;66.22;27.73;;;;;;;16.39;48.90;101936.47;5013716;28;20050;-34
2023/03/05 09:51:45;;;;;;;56.95;27.00;;;;;;;16.42;49.65;101928.22;5017380;28;20496;-34
2023/03/05 09:54:22;;;;;;;68.97;29.10;;;;;;;16.45;48.86;101934.19;5014723;28;20069;-32
2023/03/05 09:56:56;;;;;;;109.57;38.17;;;;;;;16.49;49.55;101935.69;5007973;28;20049;-32
2023/03/05 09:59:42;;;;;;;111.13;40.90;;;;;;;16.52;49.03;101930.09;5009495;28;20142;-33
2023/03/05 10:02:33;;;;;;;97.25;35.53;;;;;;;16.57;49.93;101924.38;5012209;28;20145;-33
2023/03/05 10:05:16;;;;;;;87.97;32.85;;;;;;;16.60;48.85;101918.78;5013246;28;20057;-32
2023/03/05 10:07:52;;;;;;;71.97;29.10;;;;;;;16.64;49.07;101924.75;5015000;28;20052;-32
2023/03/05 10:10:30;;;;;;;72.95;28.42;;;;;;;16.66;49.01;101912.97;5017319;28;20420;-32
2023/03/05 10:13:01;;;;;;;84.35;36.60;;;;;;;16.68;48.86;101911.03;5014468;28;20403;-33
2023/03/05 10:15:50;;;;;;;100.50;43.53;;;;;;;16.72;48.55;101914.31;5018512;28;20061;-32
2023/03/05 10:18:28;;;;;;;94.32;42.28;;;;;;;16.73;48.30;101905.34;5015564;28;20057;-33
2023/03/05 10:21:02;;;;;;;100.50;41.97;;;;;;;16.74;48.84;101896.34;5018731;28;20619;-33
2023/03/05 10:23:28;;;;;;;;;;;;;;;16.73;47.90;101898.16;5015739;28;20566;-32
2023/03/05 10:26:10;;;;;;;92.35;41.97;;;;;;;16.77;48.95;101896.97;5014647;28;19957;-34
2023/03/05 10:29:02;;;;;;;98.53;42.42;;;;;;;16.76;48.46;101887.22;5013541;28;20050;-32
2023/03/05 10:31:41;;;;;;;96.68;41.05;;;;;;;16.76;48.24;101892.59;5001816;28;20072;-33
2023/03/05 10:34:28;;;;;;;92.93;41.80;;;;;;;16.75;48.08;101882.81;5004551;28;20430;-34
2023/03/05 10:37:17;;;;;;;86.60;39.60;;;;;;;16.78;47.87;101887.94;5002327;28;20045;-33
2023/03/05 10:40:09;;;;;;;91.15;41.97;;;;;;;16.76;48.65;101881.88;5004337;28;20779;-33
2023/03/05 10:42:59;;;;;;;83.15;39.42;;;;;;;16.77;48.36;101874.69;5002753;28;20049;-34
2023/03/05 10:45:38;;;;;;;82.32;40.35;;;;;;;16.80;48.85;101884.28;4995195;28;20049;-34
2023/03/05 10:48:10;;;;;;;86.93;39.03;;;;;;;16.81;48.18;101872.63;5000300;28;20064;-33
2023/03/05 10:50:43;;;;;;;73.18;32.40;;;;;;;16.78;49.05;101869.19;4999018;28;20449;-32
2023/03/05 10:53:19;;;;;;;77.63;34.63;;;;;;;16.78;48.91;101869.19;4999237;28;20076;-33
2023/03/05 10:55:45;;;;;;;84.50;35.33;;;;;;;16.80;48.95;101870.91;4999534;28;20060;-33
2023/03/05 10:58:13;;;;;;;82.57;36.30;;;;;;;16.81;48.58;101859.25;4999831;28;20456;-32
2023/03/05 11:01:11;;;;;;;76.88;35.65;;;;;;;16.80;48.87;101846.81;4999033;28;20068;-32
2023/03/05 11:03:58;;;;;;;110.30;37.65;;;;;;;16.84;48.53;101846.44;4998874;28;20062;-33
2023/03/05 11:06:39;;;;;;;92.45;39.20;;;;;;;16.86;48.54;101849.00;5000579;28;20337;-33
2023/03/05 11:09:33;;;;;;;88.40;38.47;;;;;;;16.88;48.75;101837.19;5002779;28;20441;-33
2023/03/05 11:12:05;;;;;;;89.90;39.53;;;;;;;16.91;49.08;101834.28;5000840;28;20433;-33
2023/03/05 11:14:32;;;;;;;86.88;39.85;;;;;;;16.92;48.99;101830.63;4998928;28;20064;-34
2023/03/05 11:17:01;;;;;;;85.38;39.13;;;;;;;16.93;48.94;101823.47;5009250;28;20136;-33
2023/03/05 11:19:32;;;;;;;87.15;37.35;;;;;;;16.94;49.14;101819.78;5013973;28;20053;-32
2023/03/05 11:22:19;;;;;;;87.95;39.78;;;;;;;16.97;48.34;101822.25;5015222;28;20494;-34
2023/03/05 11:25:20;;;;;;;86.60;36.45;;;;;;;16.99;48.78;101820.28;5014870;28;20060;-35
2023/03/05 11:27:54;;;;;;;77.03;35.65;;;;;;;17.02;48.50;101807.50;4963439;28;20562;-33
2023/03/05 11:30:29;;;;;;;76.40;35.22;;;;;;;17.05;47.94;101817.13;5009822;28;20572;-34
2023/03/05 11:33:07;;;;;;;74.35;34.10;;;;;;;17.09;47.91;101809.69;5019958;28;20064;-35